sensor_id;sensor_type;location;lat;lon;timestamp;pressure;altitude;pressure_sealevel;temperature;humidity
44138;BME280;29800;55.942;37.314;2022-11-20T00:01:23;99527.03;;;-0.47;67.83
44138;BME280;29800;55.942;37.314;2022-11-20T00:03:51;99520.16;;;-0.49;67.80
44138;BME280;29800;55.942;37.314;2022-11-20T00:06:19;99523.97;;;-0.44;67.99
44138;BME280;29800;55.942;37.314;2022-11-20T00:08:46;99527.59;;;-0.37;68.01
44138;BME280;29800;55.942;37.314;2022-11-20T00:11:15;99531.31;;;-0.38;67.79
44138;BME280;29800;55.942;37.314;2022-11-20T00:13:42;99526.13;;;-0.39;67.51
44138;BME280;29800;55.942;37.314;2022-11-20T00:16:14;99530.09;;;-0.35;67.51
44138;BME280;29800;55.942;37.314;2022-11-20T00:18:40;99532.78;;;-0.35;67.14
44138;BME280;29800;55.942;37.314;2022-11-20T00:21:12;99536.13;;;-0.33;67.25
44138;BME280;29800;55.942;37.314;2022-11-20T00:23:39;99527.03;;;-0.32;67.40
44138;BME280;29800;55.942;37.314;2022-11-20T00:26:07;99523.53;;;-0.32;66.98
44138;BME280;29800;55.942;37.314;2022-11-20T00:28:34;99530.47;;;-0.38;67.22
44138;BME280;29800;55.942;37.314;2022-11-20T00:31:02;99537.53;;;-0.37;67.02
44138;BME280;29800;55.942;37.314;2022-11-20T00:33:28;99528.81;;;-0.39;67.08
44138;BME280;29800;55.942;37.314;2022-11-20T00:35:59;99534.84;;;-0.37;67.59
44138;BME280;29800;55.942;37.314;2022-11-20T00:38:26;99526.50;;;-0.42;67.66
44138;BME280;29800;55.942;37.314;2022-11-20T00:40:59;99529.00;;;-0.26;67.29
44138;BME280;29800;55.942;37.314;2022-11-20T00:43:26;99527.59;;;-0.22;66.76
44138;BME280;29800;55.942;37.314;2022-11-20T00:45:59;99519.81;;;-0.16;66.84
44138;BME280;29800;55.942;37.314;2022-11-20T00:48:25;99528.91;;;-0.17;66.66
44138;BME280;29800;55.942;37.314;2022-11-20T00:50:51;99525.94;;;-0.23;66.34
44138;BME280;29800;55.942;37.314;2022-11-20T00:53:18;99531.69;;;-0.26;66.68
44138;BME280;29800;55.942;37.314;2022-11-20T00:55:53;99533.66;;;-0.20;66.80
44138;BME280;29800;55.942;37.314;2022-11-20T00:58:21;99537.44;;;-0.29;66.27
44138;BME280;29800;55.942;37.314;2022-11-20T01:00:47;99534.84;;;-0.37;66.48
44138;BME280;29800;55.942;37.314;2022-11-20T01:03:16;99532.78;;;-0.35;66.57
44138;BME280;29800;55.942;37.314;2022-11-20T01:05:43;99527.03;;;-0.32;66.59
44138;BME280;29800;55.942;37.314;2022-11-20T01:08:09;99532.06;;;-0.29;66.05
44138;BME280;29800;55.942;37.314;2022-11-20T01:10:35;99518.97;;;-0.32;66.12
44138;BME280;29800;55.942;37.314;2022-11-20T01:13:01;99520.94;;;-0.26;66.18
44138;BME280;29800;55.942;37.314;2022-11-20T01:15:46;99521.66;;;-0.17;65.81
44138;BME280;29800;55.942;37.314;2022-11-20T01:18:12;99518.78;;;-0.15;65.23
44138;BME280;29800;55.942;37.314;2022-11-20T01:20:38;99520.47;;;-0.14;65.15
44138;BME280;29800;55.942;37.314;2022-11-20T01:23:04;99518.88;;;-0.24;64.87
44138;BME280;29800;55.942;37.314;2022-11-20T01:25:30;99518.34;;;-0.19;64.92
44138;BME280;29800;55.942;37.314;2022-11-20T01:27:56;99518.44;;;-0.12;65.23
44138;BME280;29800;55.942;37.314;2022-11-20T01:30:22;99522.03;;;-0.05;64.94
44138;BME280;29800;55.942;37.314;2022-11-20T01:32:48;99524.34;;;-0.02;64.42
44138;BME280;29800;55.942;37.314;2022-11-20T01:35:14;99526.41;;;-0.04;64.38
44138;BME280;29800;55.942;37.314;2022-11-20T01:37:40;99526.69;;;-0.14;64.12
44138;BME280;29800;55.942;37.314;2022-11-20T01:40:07;99530.00;;;-0.27;64.85
44138;BME280;29800;55.942;37.314;2022-11-20T01:42:33;99527.31;;;-0.27;64.81
44138;BME280;29800;55.942;37.314;2022-11-20T01:48:13;99531.97;;;-0.21;64.54
44138;BME280;29800;55.942;37.314;2022-11-20T01:50:40;99534.38;;;-0.26;65.02
44138;BME280;29800;55.942;37.314;2022-11-20T01:53:13;99532.34;;;-0.24;64.51
44138;BME280;29800;55.942;37.314;2022-11-20T01:55:53;99542.09;;;-0.23;64.68
44138;BME280;29800;55.942;37.314;2022-11-20T01:58:28;99545.50;;;-0.29;64.88
44138;BME280;29800;55.942;37.314;2022-11-20T02:00:56;99556.28;;;-0.29;64.82
44138;BME280;29800;55.942;37.314;2022-11-20T02:03:22;99548.38;;;-0.30;64.78
44138;BME280;29800;55.942;37.314;2022-11-20T02:06:03;99554.84;;;-0.40;64.86
44138;BME280;29800;55.942;37.314;2022-11-20T02:08:32;99558.94;;;-0.44;64.87
44138;BME280;29800;55.942;37.314;2022-11-20T02:10:59;99557.06;;;-0.43;64.68
44138;BME280;29800;55.942;37.314;2022-11-20T02:13:25;99563.84;;;-0.47;64.38
44138;BME280;29800;55.942;37.314;2022-11-20T02:16:25;99570.34;;;-0.42;64.78
44138;BME280;29800;55.942;37.314;2022-11-20T02:18:53;99560.50;;;-0.49;64.84
44138;BME280;29800;55.942;37.314;2022-11-20T02:24:03;99567.28;;;-0.53;65.08
44138;BME280;29800;55.942;37.314;2022-11-20T02:26:32;99566.63;;;-0.56;65.54
44138;BME280;29800;55.942;37.314;2022-11-20T02:29:00;99583.81;;;-0.65;65.23
44138;BME280;29800;55.942;37.314;2022-11-20T02:31:27;99575.13;;;-0.67;65.48
44138;BME280;29800;55.942;37.314;2022-11-20T02:33:57;99576.53;;;-0.56;65.60
44138;BME280;29800;55.942;37.314;2022-11-20T02:36:26;99575.63;;;-0.48;65.54
44138;BME280;29800;55.942;37.314;2022-11-20T02:38:53;99580.72;;;-0.53;65.34
44138;BME280;29800;55.942;37.314;2022-11-20T02:41:19;99581.44;;;-0.60;64.98
44138;BME280;29800;55.942;37.314;2022-11-20T02:43:45;99576.53;;;-0.56;65.49
44138;BME280;29800;55.942;37.314;2022-11-20T02:46:11;99576.16;;;-0.53;65.29
44138;BME280;29800;55.942;37.314;2022-11-20T02:48:38;99576.69;;;-0.58;65.02
44138;BME280;29800;55.942;37.314;2022-11-20T02:51:04;99583.41;;;-0.53;64.93
44138;BME280;29800;55.942;37.314;2022-11-20T02:53:30;99587.56;;;-0.51;64.67
44138;BME280;29800;55.942;37.314;2022-11-20T02:55:56;99589.88;;;-0.48;65.04
44138;BME280;29800;55.942;37.314;2022-11-20T02:58:22;99585.00;;;-0.44;64.57
44138;BME280;29800;55.942;37.314;2022-11-20T03:00:50;99589.72;;;-0.46;65.00
44138;BME280;29800;55.942;37.314;2022-11-20T03:03:16;99584.69;;;-0.49;64.93
44138;BME280;29800;55.942;37.314;2022-11-20T03:05:42;99585.38;;;-0.47;64.49
44138;BME280;29800;55.942;37.314;2022-11-20T03:08:08;99588.88;;;-0.47;64.65
44138;BME280;29800;55.942;37.314;2022-11-20T03:10:34;99588.34;;;-0.42;64.74
44138;BME280;29800;55.942;37.314;2022-11-20T03:13:00;99590.75;;;-0.47;64.58
44138;BME280;29800;55.942;37.314;2022-11-20T03:15:26;99598.03;;;-0.56;64.39
44138;BME280;29800;55.942;37.314;2022-11-20T03:17:55;99595.53;;;-0.58;64.97
44138;BME280;29800;55.942;37.314;2022-11-20T03:20:22;99593.00;;;-0.59;64.99
44138;BME280;29800;55.942;37.314;2022-11-20T03:22:48;99591.81;;;-0.57;64.74
44138;BME280;29800;55.942;37.314;2022-11-20T03:25:14;99586.19;;;-0.47;65.01
44138;BME280;29800;55.942;37.314;2022-11-20T03:27:40;99590.00;;;-0.41;64.98
44138;BME280;29800;55.942;37.314;2022-11-20T03:30:06;99594.22;;;-0.24;64.79
44138;BME280;29800;55.942;37.314;2022-11-20T03:32:33;99593.75;;;-0.12;64.00
44138;BME280;29800;55.942;37.314;2022-11-20T03:34:59;99602.22;;;-0.01;63.91
44138;BME280;29800;55.942;37.314;2022-11-20T03:37:25;99593.59;;;0.04;63.32
44138;BME280;29800;55.942;37.314;2022-11-20T03:39:51;99592.13;;;0.16;63.15
44138;BME280;29800;55.942;37.314;2022-11-20T03:42:17;99593.84;;;0.24;63.22
44138;BME280;29800;55.942;37.314;2022-11-20T03:45:02;99591.44;;;0.29;62.21
44138;BME280;29800;55.942;37.314;2022-11-20T03:47:29;99592.75;;;0.33;62.26
44138;BME280;29800;55.942;37.314;2022-11-20T03:49:55;99592.94;;;0.32;62.29
44138;BME280;29800;55.942;37.314;2022-11-20T03:52:21;99599.69;;;0.28;62.43
44138;BME280;29800;55.942;37.314;2022-11-20T03:54:47;99606.84;;;0.21;62.33
44138;BME280;29800;55.942;37.314;2022-11-20T03:57:13;99597.50;;;0.16;62.52
44138;BME280;29800;55.942;37.314;2022-11-20T03:59:39;99601.28;;;0.07;62.51
44138;BME280;29800;55.942;37.314;2022-11-20T04:02:05;99610.09;;;0.01;62.92
44138;BME280;29800;55.942;37.314;2022-11-20T04:04:31;99606.56;;;0.01;62.48
44138;BME280;29800;55.942;37.314;2022-11-20T04:06:57;99613.53;;;-0.05;62.64
44138;BME280;29800;55.942;37.314;2022-11-20T04:09:23;99612.22;;;-0.09;62.93
44138;BME280;29800;55.942;37.314;2022-11-20T04:11:49;99611.66;;;-0.20;62.87
44138;BME280;29800;55.942;37.314;2022-11-20T04:14:16;99608.97;;;-0.20;62.82
44138;BME280;29800;55.942;37.314;2022-11-20T04:16:42;99619.34;;;-0.16;62.98
44138;BME280;29800;55.942;37.314;2022-11-20T04:19:11;99621.31;;;-0.10;63.11
44138;BME280;29800;55.942;37.314;2022-11-20T04:21:38;99626.03;;;-0.12;62.41
44138;BME280;29800;55.942;37.314;2022-11-20T04:24:04;99626.97;;;-0.05;63.01
44138;BME280;29800;55.942;37.314;2022-11-20T04:26:31;99630.53;;;-0.05;62.52
44138;BME280;29800;55.942;37.314;2022-11-20T04:28:57;99632.00;;;-0.02;62.67
44138;BME280;29800;55.942;37.314;2022-11-20T04:31:26;99642.66;;;0.06;62.48
44138;BME280;29800;55.942;37.314;2022-11-20T04:33:52;99642.03;;;0.04;62.17
44138;BME280;29800;55.942;37.314;2022-11-20T04:36:26;99647.03;;;0.07;62.18
44138;BME280;29800;55.942;37.314;2022-11-20T04:38:57;99644.44;;;-0.01;62.46
44138;BME280;29800;55.942;37.314;2022-11-20T04:41:28;99654.38;;;-0.02;62.16
44138;BME280;29800;55.942;37.314;2022-11-20T04:43:56;99651.88;;;-0.03;62.45
44138;BME280;29800;55.942;37.314;2022-11-20T04:46:26;99660.94;;;-0.04;62.47
44138;BME280;29800;55.942;37.314;2022-11-20T04:48:53;99670.13;;;0.02;62.20
44138;BME280;29800;55.942;37.314;2022-11-20T04:51:19;99667.56;;;0.08;62.63
44138;BME280;29800;55.942;37.314;2022-11-20T04:53:46;99670.19;;;0.16;61.56
44138;BME280;29800;55.942;37.314;2022-11-20T04:56:13;99679.19;;;0.24;61.82
44138;BME280;29800;55.942;37.314;2022-11-20T04:58:39;99673.16;;;0.22;61.42
44138;BME280;29800;55.942;37.314;2022-11-20T05:01:15;99673.78;;;0.24;61.50
44138;BME280;29800;55.942;37.314;2022-11-20T05:03:43;99661.72;;;0.20;61.64
44138;BME280;29800;55.942;37.314;2022-11-20T05:06:11;99672.97;;;0.23;61.72
44138;BME280;29800;55.942;37.314;2022-11-20T05:08:38;99659.00;;;0.20;61.52
44138;BME280;29800;55.942;37.314;2022-11-20T05:11:06;99668.41;;;0.24;61.38
44138;BME280;29800;55.942;37.314;2022-11-20T05:13:33;99681.88;;;0.24;60.97
44138;BME280;29800;55.942;37.314;2022-11-20T05:16:04;99675.94;;;0.28;61.38
44138;BME280;29800;55.942;37.314;2022-11-20T05:18:31;99678.44;;;0.30;61.18
44138;BME280;29800;55.942;37.314;2022-11-20T05:20:58;99677.78;;;0.28;60.89
44138;BME280;29800;55.942;37.314;2022-11-20T05:23:25;99685.97;;;0.34;61.08
44138;BME280;29800;55.942;37.314;2022-11-20T05:25:53;99690.06;;;0.45;61.17
44138;BME280;29800;55.942;37.314;2022-11-20T05:28:20;99698.41;;;0.50;61.12
44138;BME280;29800;55.942;37.314;2022-11-20T05:30:46;99702.41;;;0.54;60.44
44138;BME280;29800;55.942;37.314;2022-11-20T05:33:12;99697.94;;;0.62;60.79
44138;BME280;29800;55.942;37.314;2022-11-20T05:35:38;99697.47;;;0.73;60.32
44138;BME280;29800;55.942;37.314;2022-11-20T05:38:04;99701.84;;;0.74;60.53
44138;BME280;29800;55.942;37.314;2022-11-20T05:40:30;99699.97;;;0.75;60.57
44138;BME280;29800;55.942;37.314;2022-11-20T05:42:56;99702.75;;;0.81;60.42
44138;BME280;29800;55.942;37.314;2022-11-20T05:45:22;99702.50;;;0.76;60.16
44138;BME280;29800;55.942;37.314;2022-11-20T05:47:48;99705.81;;;0.78;60.47
44138;BME280;29800;55.942;37.314;2022-11-20T05:50:14;99711.84;;;0.80;60.36
44138;BME280;29800;55.942;37.314;2022-11-20T05:52:41;99713.81;;;0.86;60.65
44138;BME280;29800;55.942;37.314;2022-11-20T05:55:07;99717.44;;;0.94;60.09
44138;BME280;29800;55.942;37.314;2022-11-20T05:57:34;99708.59;;;1.00;60.49
44138;BME280;29800;55.942;37.314;2022-11-20T06:00:00;99713.22;;;1.06;60.03
44138;BME280;29800;55.942;37.314;2022-11-20T06:02:34;99716.06;;;1.19;60.51
44138;BME280;29800;55.942;37.314;2022-11-20T06:05:01;99717.84;;;1.27;59.72
44138;BME280;29800;55.942;37.314;2022-11-20T06:07:29;99716.88;;;1.35;59.44
44138;BME280;29800;55.942;37.314;2022-11-20T06:09:55;99728.69;;;1.34;58.83
44138;BME280;29800;55.942;37.314;2022-11-20T06:12:21;99731.94;;;1.29;59.41
44138;BME280;29800;55.942;37.314;2022-11-20T06:14:47;99740.78;;;1.23;59.09
44138;BME280;29800;55.942;37.314;2022-11-20T06:17:13;99745.47;;;1.14;59.64
44138;BME280;29800;55.942;37.314;2022-11-20T06:19:39;99751.06;;;0.98;59.43
44138;BME280;29800;55.942;37.314;2022-11-20T06:22:05;99748.84;;;0.86;60.04
44138;BME280;29800;55.942;37.314;2022-11-20T06:24:31;99748.94;;;0.78;60.45
44138;BME280;29800;55.942;37.314;2022-11-20T06:26:57;99754.25;;;0.71;60.04
44138;BME280;29800;55.942;37.314;2022-11-20T06:29:23;99752.09;;;0.67;60.67
44138;BME280;29800;55.942;37.314;2022-11-20T06:31:49;99760.72;;;0.62;60.71
44138;BME280;29800;55.942;37.314;2022-11-20T06:34:16;99762.13;;;0.58;61.09
44138;BME280;29800;55.942;37.314;2022-11-20T06:36:42;99756.28;;;0.54;60.58
44138;BME280;29800;55.942;37.314;2022-11-20T06:39:08;99765.09;;;0.48;60.53
44138;BME280;29800;55.942;37.314;2022-11-20T06:41:34;99765.19;;;0.40;61.45
44138;BME280;29800;55.942;37.314;2022-11-20T06:44:00;99770.00;;;0.30;61.68
44138;BME280;29800;55.942;37.314;2022-11-20T06:46:26;99775.09;;;0.25;61.65
44138;BME280;29800;55.942;37.314;2022-11-20T06:48:52;99776.09;;;0.24;62.00
44138;BME280;29800;55.942;37.314;2022-11-20T06:51:19;99770.72;;;0.24;62.50
44138;BME280;29800;55.942;37.314;2022-11-20T06:53:45;99773.13;;;0.18;61.78
44138;BME280;29800;55.942;37.314;2022-11-20T06:56:11;99776.81;;;0.17;62.72
44138;BME280;29800;55.942;37.314;2022-11-20T06:58:37;99770.44;;;0.18;62.24
44138;BME280;29800;55.942;37.314;2022-11-20T07:01:06;99773.22;;;0.25;62.32
44138;BME280;29800;55.942;37.314;2022-11-20T07:03:33;99769.03;;;0.23;61.99
44138;BME280;29800;55.942;37.314;2022-11-20T07:06:00;99764.00;;;0.20;62.53
44138;BME280;29800;55.942;37.314;2022-11-20T07:08:26;99757.97;;;0.17;62.34
44138;BME280;29800;55.942;37.314;2022-11-20T07:10:53;99757.31;;;0.15;62.98
44138;BME280;29800;55.942;37.314;2022-11-20T07:13:22;99752.84;;;0.08;62.35
44138;BME280;29800;55.942;37.314;2022-11-20T07:15:48;99768.53;;;0.04;62.98
44138;BME280;29800;55.942;37.314;2022-11-20T07:18:14;99769.16;;;0.06;62.58
44138;BME280;29800;55.942;37.314;2022-11-20T07:20:40;99770.31;;;0.12;62.86
44138;BME280;29800;55.942;37.314;2022-11-20T07:23:06;99780.91;;;0.13;62.63
44138;BME280;29800;55.942;37.314;2022-11-20T07:25:32;99774.66;;;0.13;62.65
44138;BME280;29800;55.942;37.314;2022-11-20T07:27:59;99770.59;;;0.17;63.15
44138;BME280;29800;55.942;37.314;2022-11-20T07:30:28;99764.88;;;0.20;62.96
44138;BME280;29800;55.942;37.314;2022-11-20T07:32:55;99777.66;;;0.18;62.65
44138;BME280;29800;55.942;37.314;2022-11-20T07:35:22;99771.78;;;0.14;63.04
44138;BME280;29800;55.942;37.314;2022-11-20T07:37:48;99784.25;;;0.15;62.98
44138;BME280;29800;55.942;37.314;2022-11-20T07:40:18;99786.28;;;0.13;63.52
44138;BME280;29800;55.942;37.314;2022-11-20T07:42:48;99794.78;;;0.02;62.99
44138;BME280;29800;55.942;37.314;2022-11-20T07:45:15;99799.19;;;-0.05;63.41
44138;BME280;29800;55.942;37.314;2022-11-20T07:47:41;99785.38;;;-0.02;63.14
44138;BME280;29800;55.942;37.314;2022-11-20T07:50:07;99792.09;;;0.02;63.90
44138;BME280;29800;55.942;37.314;2022-11-20T07:52:33;99798.97;;;0.05;63.88
44138;BME280;29800;55.942;37.314;2022-11-20T07:55:00;99794.72;;;0.10;63.75
44138;BME280;29800;55.942;37.314;2022-11-20T07:57:26;99796.19;;;0.13;63.63
44138;BME280;29800;55.942;37.314;2022-11-20T07:59:52;99790.94;;;0.20;63.46
44138;BME280;29800;55.942;37.314;2022-11-20T08:02:18;99790.94;;;0.20;63.20
44138;BME280;29800;55.942;37.314;2022-11-20T08:04:45;99794.47;;;0.20;62.80
44138;BME280;29800;55.942;37.314;2022-11-20T08:07:11;99794.31;;;0.22;63.29
44138;BME280;29800;55.942;37.314;2022-11-20T08:09:37;99786.88;;;0.24;62.81
44138;BME280;29800;55.942;37.314;2022-11-20T08:12:03;99787.16;;;0.29;63.23
44138;BME280;29800;55.942;37.314;2022-11-20T08:15:06;99787.91;;;0.38;63.21
44138;BME280;29800;55.942;37.314;2022-11-20T08:17:32;99793.78;;;0.41;63.11
44138;BME280;29800;55.942;37.314;2022-11-20T08:19:58;99799.66;;;0.45;62.89
44138;BME280;29800;55.942;37.314;2022-11-20T08:22:24;99799.28;;;0.48;62.59
44138;BME280;29800;55.942;37.314;2022-11-20T08:24:50;99795.53;;;0.49;62.70
44138;BME280;29800;55.942;37.314;2022-11-20T08:27:17;99799.38;;;0.54;61.96
44138;BME280;29800;55.942;37.314;2022-11-20T08:29:43;99805.59;;;0.55;62.70
44138;BME280;29800;55.942;37.314;2022-11-20T08:32:09;99810.44;;;0.60;61.72
44138;BME280;29800;55.942;37.314;2022-11-20T08:34:35;99816.47;;;0.62;61.93
44138;BME280;29800;55.942;37.314;2022-11-20T08:37:02;99816.94;;;0.65;61.61
44138;BME280;29800;55.942;37.314;2022-11-20T08:39:28;99820.50;;;0.66;62.02
44138;BME280;29800;55.942;37.314;2022-11-20T08:41:54;99822.16;;;0.67;61.45
44138;BME280;29800;55.942;37.314;2022-11-20T08:44:20;99828.38;;;0.67;61.58
44138;BME280;29800;55.942;37.314;2022-11-20T08:46:47;99830.22;;;0.67;61.73
44138;BME280;29800;55.942;37.314;2022-11-20T08:49:14;99840.53;;;0.63;61.45
44138;BME280;29800;55.942;37.314;2022-11-20T08:51:41;99837.66;;;0.65;62.03
44138;BME280;29800;55.942;37.314;2022-11-20T08:54:07;99836.66;;;0.66;61.82
44138;BME280;29800;55.942;37.314;2022-11-20T08:56:35;99844.25;;;0.62;61.46
44138;BME280;29800;55.942;37.314;2022-11-20T08:59:01;99843.41;;;0.62;61.40
44138;BME280;29800;55.942;37.314;2022-11-20T09:01:28;99853.19;;;0.63;61.45
44138;BME280;29800;55.942;37.314;2022-11-20T09:03:56;99853.81;;;0.65;61.58
44138;BME280;29800;55.942;37.314;2022-11-20T09:06:23;99851.78;;;0.67;61.44
44138;BME280;29800;55.942;37.314;2022-11-20T09:08:55;99858.78;;;0.76;61.87
44138;BME280;29800;55.942;37.314;2022-11-20T09:11:22;99867.22;;;0.73;61.85
44138;BME280;29800;55.942;37.314;2022-11-20T09:13:49;99867.59;;;0.70;61.37
44138;BME280;29800;55.942;37.314;2022-11-20T09:16:15;99864.53;;;0.73;61.94
44138;BME280;29800;55.942;37.314;2022-11-20T09:18:41;99871.41;;;0.76;61.48
44138;BME280;29800;55.942;37.314;2022-11-20T09:21:12;99877.94;;;0.81;61.70
44138;BME280;29800;55.942;37.314;2022-11-20T09:23:38;99882.19;;;0.76;61.69
44138;BME280;29800;55.942;37.314;2022-11-20T09:26:07;99882.03;;;0.77;61.41
44138;BME280;29800;55.942;37.314;2022-11-20T09:28:33;99889.13;;;0.70;62.08
44138;BME280;29800;55.942;37.314;2022-11-20T09:30:59;99909.41;;;0.66;61.86
44138;BME280;29800;55.942;37.314;2022-11-20T09:33:26;99913.81;;;0.59;62.29
44138;BME280;29800;55.942;37.314;2022-11-20T09:35:52;99918.19;;;0.60;62.25
44138;BME280;29800;55.942;37.314;2022-11-20T09:38:18;99913.16;;;0.57;62.57
44138;BME280;29800;55.942;37.314;2022-11-20T09:40:55;99915.63;;;0.66;62.77
44138;BME280;29800;55.942;37.314;2022-11-20T09:43:31;99917.47;;;0.66;62.93
44138;BME280;29800;55.942;37.314;2022-11-20T09:46:26;99923.44;;;0.76;63.57
44138;BME280;29800;55.942;37.314;2022-11-20T09:49:23;99929.72;;;0.68;62.82
44138;BME280;29800;55.942;37.314;2022-11-20T09:52:37;99917.06;;;0.77;63.58
44138;BME280;29800;55.942;37.314;2022-11-20T09:55:12;99918.50;;;0.65;63.17
44138;BME280;29800;55.942;37.314;2022-11-20T09:57:42;99918.66;;;0.63;63.87
44138;BME280;29800;55.942;37.314;2022-11-20T10:00:12;99920.53;;;0.63;63.37
44138;BME280;29800;55.942;37.314;2022-11-20T10:05:19;99916.72;;;0.72;64.08
44138;BME280;29800;55.942;37.314;2022-11-20T10:11:10;99927.84;;;0.77;63.70
44138;BME280;29800;55.942;37.314;2022-11-20T10:16:22;99933.56;;;0.74;64.77
44138;BME280;29800;55.942;37.314;2022-11-20T10:22:27;99937.56;;;0.78;64.49
44138;BME280;29800;55.942;37.314;2022-11-20T10:25:17;99935.22;;;0.75;64.47
44138;BME280;29800;55.942;37.314;2022-11-20T10:30:22;99926.50;;;0.73;65.09
44138;BME280;29800;55.942;37.314;2022-11-20T10:33:32;99936.56;;;0.79;65.48
44138;BME280;29800;55.942;37.314;2022-11-20T10:38:55;99944.50;;;0.96;64.45
44138;BME280;29800;55.942;37.314;2022-11-20T10:41:36;99949.25;;;0.94;64.44
44138;BME280;29800;55.942;37.314;2022-11-20T10:44:36;99935.88;;;1.00;65.12
44138;BME280;29800;55.942;37.314;2022-11-20T10:47:26;99943.25;;;0.83;64.83
44138;BME280;29800;55.942;37.314;2022-11-20T10:50:01;99944.00;;;0.77;65.14
44138;BME280;29800;55.942;37.314;2022-11-20T10:52:56;99944.56;;;0.87;65.99
44138;BME280;29800;55.942;37.314;2022-11-20T11:00:48;99948.75;;;0.90;65.42
44138;BME280;29800;55.942;37.314;2022-11-20T11:03:26;99951.53;;;0.97;65.78
44138;BME280;29800;55.942;37.314;2022-11-20T11:09:11;99953.31;;;0.89;65.16
44138;BME280;29800;55.942;37.314;2022-11-20T11:11:41;99957.75;;;0.82;65.88
44138;BME280;29800;55.942;37.314;2022-11-20T11:14:13;99957.41;;;0.85;65.62
44138;BME280;29800;55.942;37.314;2022-11-20T11:16:52;99968.13;;;0.94;65.62
44138;BME280;29800;55.942;37.314;2022-11-20T11:19:22;99969.19;;;0.84;65.10
44138;BME280;29800;55.942;37.314;2022-11-20T11:21:54;99969.84;;;0.86;65.58
44138;BME280;29800;55.942;37.314;2022-11-20T11:24:28;99971.88;;;0.84;65.35
44138;BME280;29800;55.942;37.314;2022-11-20T11:29:23;99976.13;;;0.79;64.82
44138;BME280;29800;55.942;37.314;2022-11-20T11:32:08;99974.88;;;0.89;64.40
44138;BME280;29800;55.942;37.314;2022-11-20T11:34:36;99976.34;;;0.77;64.14
44138;BME280;29800;55.942;37.314;2022-11-20T11:37:04;99972.97;;;0.75;63.49
44138;BME280;29800;55.942;37.314;2022-11-20T11:39:40;99972.78;;;0.77;63.94
44138;BME280;29800;55.942;37.314;2022-11-20T11:42:14;99981.72;;;0.77;63.33
44138;BME280;29800;55.942;37.314;2022-11-20T11:44:47;99977.88;;;0.71;63.50
44138;BME280;29800;55.942;37.314;2022-11-20T11:47:37;99981.09;;;0.67;63.66
44138;BME280;29800;55.942;37.314;2022-11-20T11:50:25;99980.75;;;0.70;62.92
44138;BME280;29800;55.942;37.314;2022-11-20T11:53:08;99982.56;;;0.54;63.48
44138;BME280;29800;55.942;37.314;2022-11-20T11:55:47;99975.72;;;0.44;63.52
44138;BME280;29800;55.942;37.314;2022-11-20T12:06:53;99980.22;;;0.51;63.22
44138;BME280;29800;55.942;37.314;2022-11-20T12:09:34;99986.38;;;0.60;63.40
44138;BME280;29800;55.942;37.314;2022-11-20T12:12:12;99983.16;;;0.65;62.93
44138;BME280;29800;55.942;37.314;2022-11-20T12:14:47;99985.19;;;0.63;63.07
44138;BME280;29800;55.942;37.314;2022-11-20T12:17:16;99984.84;;;0.66;62.41
44138;BME280;29800;55.942;37.314;2022-11-20T12:19:44;99989.38;;;0.65;62.65
44138;BME280;29800;55.942;37.314;2022-11-20T12:22:49;99993.81;;;0.81;63.04
44138;BME280;29800;55.942;37.314;2022-11-20T12:25:29;99995.19;;;0.77;62.50
44138;BME280;29800;55.942;37.314;2022-11-20T12:30:33;99993.44;;;0.84;62.44
44138;BME280;29800;55.942;37.314;2022-11-20T12:33:27;99989.84;;;0.92;62.14
44138;BME280;29800;55.942;37.314;2022-11-20T12:36:06;99986.72;;;0.80;61.96
44138;BME280;29800;55.942;37.314;2022-11-20T12:45:02;99986.38;;;0.83;62.18
44138;BME280;29800;55.942;37.314;2022-11-20T13:07:38;100002.91;;;0.80;60.78
44138;BME280;29800;55.942;37.314;2022-11-20T13:10:18;100004.59;;;0.81;60.93
44138;BME280;29800;55.942;37.314;2022-11-20T13:12:55;100012.91;;;0.71;61.32
44138;BME280;29800;55.942;37.314;2022-11-20T13:16:14;100018.94;;;0.73;61.02
44138;BME280;29800;55.942;37.314;2022-11-20T13:18:37;100015.66;;;0.63;61.57
44138;BME280;29800;55.942;37.314;2022-11-20T13:21:22;100007.03;;;0.68;61.24
44138;BME280;29800;55.942;37.314;2022-11-20T13:23:51;100017.53;;;0.63;61.43
44138;BME280;29800;55.942;37.314;2022-11-20T13:26:22;100011.22;;;0.70;61.63
44138;BME280;29800;55.942;37.314;2022-11-20T13:29:11;100009.16;;;0.81;61.41
44138;BME280;29800;55.942;37.314;2022-11-20T13:31:43;100018.28;;;0.71;61.39
44138;BME280;29800;55.942;37.314;2022-11-20T13:34:26;100017.47;;;0.71;61.95
44138;BME280;29800;55.942;37.314;2022-11-20T13:36:56;100021.56;;;0.59;61.74
44138;BME280;29800;55.942;37.314;2022-11-20T13:39:32;100023.63;;;0.57;61.48
44138;BME280;29800;55.942;37.314;2022-11-20T13:42:01;100015.84;;;0.62;61.67
44138;BME280;29800;55.942;37.314;2022-11-20T13:47:04;100027.44;;;0.62;61.10
44138;BME280;29800;55.942;37.314;2022-11-20T13:49:46;100035.34;;;0.64;61.87
44138;BME280;29800;55.942;37.314;2022-11-20T13:52:50;100035.97;;;0.74;61.52
44138;BME280;29800;55.942;37.314;2022-11-20T14:00:54;100033.06;;;0.52;61.84
44138;BME280;29800;55.942;37.314;2022-11-20T14:03:25;100037.47;;;0.45;61.59
44138;BME280;29800;55.942;37.314;2022-11-20T14:06:02;100034.63;;;0.47;62.08
44138;BME280;29800;55.942;37.314;2022-11-20T14:11:16;100053.66;;;0.45;61.84
44138;BME280;29800;55.942;37.314;2022-11-20T14:13:54;100054.00;;;0.42;61.79
44138;BME280;29800;55.942;37.314;2022-11-20T14:16:28;100041.78;;;0.31;61.83
44138;BME280;29800;55.942;37.314;2022-11-20T14:18:56;100043.97;;;0.28;62.68
44138;BME280;29800;55.942;37.314;2022-11-20T14:21:28;100053.72;;;0.29;61.78
44138;BME280;29800;55.942;37.314;2022-11-20T14:24:05;100060.28;;;0.34;62.40
44138;BME280;29800;55.942;37.314;2022-11-20T14:26:34;100050.19;;;0.28;62.48
44138;BME280;29800;55.942;37.314;2022-11-20T14:29:02;100067.16;;;0.37;62.79
44138;BME280;29800;55.942;37.314;2022-11-20T14:31:29;100068.84;;;0.38;62.33
44138;BME280;29800;55.942;37.314;2022-11-20T14:33:56;100065.47;;;0.36;62.23